Terminal Aerodrome Forecast
Issued by NWS

Home | Current Version | Previous Version | Text Only | Print | Product List | Glossary On
Versions: 1 2 3 4 5 6 7 8 9 10 11 12 13 14 15 16 17 18 19 20 21 22
247
FTUS44 KLZK 242329
TAFPBF
TAF
KPBF 242329Z 2500/2524 28010G18KT P6SM FEW035 SCT250
     FM250800 31009G15KT P6SM SCT250
     FM251800 33010KT P6SM SCT250=

USA.gov is the U.S. government's official web portal to all federal, state and local government web resources and services.